createdAt,value
2023-05-18T00:00:46.814Z,4.72
2023-05-18T00:03:15.545Z,4.15
2023-05-18T00:05:44.148Z,4.22
2023-05-18T00:08:12.772Z,4.30
2023-05-18T00:10:42.606Z,4.07
2023-05-18T00:13:11.255Z,4.22
2023-05-18T00:15:39.735Z,3.63
2023-05-18T00:18:08.684Z,3.90
2023-05-18T00:20:37.896Z,4.03
2023-05-18T00:23:10.607Z,4.40
2023-05-18T00:25:39.181Z,4.32
2023-05-18T00:28:09.138Z,3.60
2023-05-18T00:30:37.926Z,3.80
2023-05-18T00:33:06.631Z,3.50
2023-05-18T00:35:35.073Z,3.80
2023-05-18T00:38:04.055Z,3.63
2023-05-18T00:40:32.459Z,3.67
2023-05-18T00:43:01.194Z,4.35
2023-05-18T00:45:31.338Z,4.20
2023-05-18T00:47:59.980Z,3.45
2023-05-18T00:50:28.669Z,3.42
2023-05-18T00:52:57.134Z,3.65
2023-05-18T00:55:28.032Z,3.78
2023-05-18T00:57:58.019Z,4.05
2023-05-18T01:00:26.626Z,3.63
2023-05-18T01:02:57.623Z,3.70
2023-05-18T01:05:27.349Z,3.55
2023-05-18T01:07:56.795Z,3.50
2023-05-18T01:10:25.208Z,3.83
2023-05-18T01:12:57.548Z,3.90
2023-05-18T01:15:32.593Z,3.80
2023-05-18T01:18:15.234Z,3.42
2023-05-18T01:20:47.919Z,3.70
2023-05-18T01:24:06.212Z,3.42
2023-05-18T01:26:37.661Z,3.42
2023-05-18T01:29:08.736Z,3.20
2023-05-18T01:31:37.459Z,3.55
2023-05-18T01:34:06.270Z,3.63
2023-05-18T01:36:34.696Z,3.53
2023-05-18T01:39:03.802Z,3.65
2023-05-18T01:41:33.768Z,3.92
2023-05-18T01:44:07.262Z,3.35
2023-05-18T01:46:41.296Z,3.72
2023-05-18T01:49:14.610Z,3.17
2023-05-18T01:51:46.753Z,3.60
2023-05-18T01:54:17.841Z,3.47
2023-05-18T01:56:46.374Z,3.08
2023-05-18T01:59:16.402Z,3.35
2023-05-18T02:01:45.527Z,3.92
2023-05-18T02:04:13.973Z,3.42
2023-05-18T02:06:42.391Z,3.75
2023-05-18T02:09:10.943Z,3.42
2023-05-18T02:11:39.412Z,3.50
2023-05-18T02:14:07.915Z,3.30
2023-05-18T02:16:39.321Z,3.67
2023-05-18T02:19:08.154Z,3.65
2023-05-18T02:21:36.610Z,3.70
2023-05-18T02:24:06.032Z,3.65
2023-05-18T02:26:34.420Z,3.22
2023-05-18T02:29:02.981Z,3.50
2023-05-18T02:31:31.793Z,3.42
2023-05-18T02:34:01.622Z,3.38
2023-05-18T02:36:37.681Z,3.30
2023-05-18T02:39:06.685Z,3.75
2023-05-18T02:41:35.148Z,3.42
2023-05-18T02:44:04.189Z,3.53
2023-05-18T02:46:32.634Z,3.22
2023-05-18T02:49:02.785Z,2.90
2023-05-18T02:51:31.492Z,3.22
2023-05-18T02:53:59.938Z,3.15
2023-05-18T02:56:28.852Z,2.88
2023-05-18T02:58:58.520Z,2.78
2023-05-18T03:01:27.643Z,2.88
2023-05-18T03:03:57.849Z,3.20
2023-05-18T03:06:30.687Z,3.08
2023-05-18T03:08:59.276Z,3.03
2023-05-18T03:11:27.709Z,3.00
2023-05-18T03:13:56.431Z,3.05
2023-05-18T03:16:28.811Z,3.40
2023-05-18T03:18:59.472Z,3.10
2023-05-18T03:21:34.211Z,3.30
2023-05-18T03:24:02.984Z,2.90
2023-05-18T03:26:32.006Z,3.10
2023-05-18T03:29:01.405Z,3.10
2023-05-18T03:31:30.247Z,2.92
2023-05-18T03:33:58.647Z,2.90
2023-05-18T03:36:30.324Z,3.00
2023-05-18T06:16:17.883Z,3.60
2023-05-18T06:18:46.458Z,4.05
2023-05-18T06:21:14.905Z,5.20
2023-05-18T06:23:44.657Z,4.57
2023-05-18T06:26:13.078Z,4.90
2023-05-18T06:28:41.738Z,4.43
2023-05-18T06:31:10.504Z,4.78
2023-05-18T06:33:40.289Z,4.22
2023-05-18T06:36:09.812Z,4.57
2023-05-18T06:38:38.222Z,4.03
2023-05-18T06:41:06.809Z,4.47
2023-05-18T06:43:35.389Z,4.25
2023-05-18T06:46:03.866Z,4.45
2023-05-18T06:48:32.513Z,4.03
2023-05-18T06:51:02.255Z,4.20
2023-05-18T06:53:32.053Z,3.67
2023-05-18T06:56:00.911Z,3.97
2023-05-18T06:58:29.391Z,3.97
2023-05-18T07:00:58.300Z,4.00
2023-05-18T07:03:26.860Z,4.10
2023-05-18T07:05:55.306Z,3.65
2023-05-18T07:08:25.437Z,4.45
2023-05-18T07:10:53.816Z,3.47
2023-05-18T07:13:22.425Z,4.00
2023-05-18T07:15:50.877Z,4.80
2023-05-18T07:18:19.557Z,3.85
2023-05-18T07:20:48.143Z,3.40
2023-05-18T07:23:16.586Z,3.70
2023-05-18T07:25:46.548Z,5.07
2023-05-18T07:28:14.970Z,5.25
2023-05-18T07:30:43.554Z,5.07
2023-05-18T07:33:12.070Z,4.50
2023-05-18T07:35:40.543Z,4.65
2023-05-18T07:38:09.148Z,4.65
2023-05-18T07:40:40.092Z,4.22
2023-05-18T07:43:10.570Z,4.53
2023-05-18T07:45:39.044Z,4.55
2023-05-18T07:48:08.047Z,4.30
2023-05-18T07:50:37.273Z,4.00
2023-05-18T07:53:05.752Z,3.97
2023-05-18T07:55:34.438Z,4.05
2023-05-18T07:58:03.131Z,4.13
2023-05-18T08:00:32.954Z,3.72
2023-05-18T08:03:02.258Z,3.67
2023-05-18T08:05:31.513Z,3.70
2023-05-18T08:08:00.259Z,3.63
2023-05-18T08:10:28.880Z,4.18
2023-05-18T08:12:57.523Z,3.65
2023-05-18T08:15:26.187Z,3.90
2023-05-18T08:17:57.376Z,3.63
2023-05-18T08:20:30.279Z,3.78
2023-05-18T08:22:59.301Z,3.38
2023-05-18T08:25:27.777Z,4.05
2023-05-18T08:27:56.198Z,4.10
2023-05-18T08:30:25.897Z,3.40
2023-05-18T08:32:56.461Z,3.65
2023-05-18T08:35:25.298Z,3.50
2023-05-18T08:37:53.734Z,3.20
2023-05-18T08:40:22.532Z,3.47
2023-05-18T08:42:59.376Z,5.22
2023-05-18T08:45:33.707Z,6.50
2023-05-18T08:48:03.719Z,4.55
2023-05-18T08:50:33.933Z,4.93
2023-05-18T08:53:04.126Z,4.65
2023-05-18T08:55:34.998Z,4.32
2023-05-18T08:58:03.631Z,4.53
2023-05-18T09:00:32.452Z,3.90
2023-05-18T09:03:03.632Z,4.07
2023-05-18T09:05:32.777Z,3.45
2023-05-18T09:08:01.760Z,4.18
2023-05-18T09:10:30.197Z,3.53
2023-05-18T09:12:58.774Z,4.22
2023-05-18T09:15:28.127Z,4.38
2023-05-18T09:17:56.971Z,3.78
2023-05-18T09:20:27.084Z,3.53
2023-05-18T09:22:55.547Z,3.70
2023-05-18T09:25:24.211Z,4.03
2023-05-18T09:27:53.427Z,3.50
2023-05-18T09:30:22.095Z,4.00
2023-05-18T09:32:52.403Z,3.22
2023-05-18T09:35:20.999Z,3.40
2023-05-18T09:37:52.485Z,3.58
2023-05-18T09:40:21.189Z,3.53
2023-05-18T09:42:50.077Z,3.50
2023-05-18T09:45:19.878Z,3.40
2023-05-18T09:47:48.603Z,3.28
2023-05-18T09:50:19.234Z,3.25
2023-05-18T09:52:49.439Z,3.65
2023-05-18T09:55:19.910Z,3.63
2023-05-18T09:57:49.202Z,3.13
2023-05-18T10:00:19.499Z,4.03
2023-05-18T10:02:50.725Z,3.20
2023-05-18T10:05:22.902Z,3.10
2023-05-18T10:07:52.502Z,3.65
2023-05-18T10:10:24.149Z,3.80
2023-05-18T10:12:53.027Z,3.13
2023-05-18T10:15:23.268Z,3.50
2023-05-18T10:17:53.369Z,3.10
2023-05-18T10:20:24.335Z,2.85
2023-05-18T10:22:53.070Z,2.83
2023-05-18T10:25:24.180Z,2.83
2023-05-18T10:27:57.800Z,2.85
2023-05-18T10:30:26.307Z,2.85
2023-05-18T10:32:54.837Z,3.00
2023-05-18T10:35:23.996Z,2.80
2023-05-18T10:37:53.156Z,2.83
2023-05-18T10:40:23.220Z,2.67
2023-05-18T10:42:51.968Z,2.40
2023-05-18T10:45:20.582Z,3.17
2023-05-18T10:47:53.646Z,2.67
2023-05-18T10:50:22.897Z,3.00
2023-05-18T10:52:51.452Z,3.20
2023-05-18T10:55:20.172Z,3.03
2023-05-18T10:57:52.623Z,2.40
2023-05-18T11:00:21.519Z,2.90
2023-05-18T11:02:50.072Z,2.50
2023-05-18T11:05:24.883Z,2.50
2023-05-18T11:08:00.796Z,2.67
2023-05-18T11:10:36.185Z,2.90
2023-05-18T11:13:07.371Z,2.40
2023-05-18T11:16:05.255Z,2.70
2023-05-18T11:18:45.819Z,2.45
2023-05-18T11:21:35.784Z,2.40
2023-05-18T11:24:31.853Z,2.30
2023-05-18T11:27:03.449Z,2.60
2023-05-18T11:29:36.987Z,2.20
2023-05-18T11:32:05.723Z,2.40
2023-05-18T11:34:42.512Z,2.67
2023-05-18T11:37:11.133Z,2.65
2023-05-18T11:39:48.107Z,2.45
2023-05-18T11:42:19.628Z,2.38
2023-05-18T11:44:55.779Z,2.50
2023-05-18T11:47:25.636Z,2.50
2023-05-18T11:49:54.422Z,2.30
2023-05-18T11:52:24.852Z,2.50
2023-05-18T11:54:54.384Z,4.93
2023-05-18T11:57:26.850Z,3.65
2023-05-18T11:59:58.711Z,2.75
2023-05-18T12:02:29.878Z,2.45
2023-05-18T12:05:00.392Z,3.08
2023-05-18T12:07:29.874Z,2.83
2023-05-18T12:10:00.104Z,2.50
2023-05-18T12:12:29.273Z,2.63
2023-05-18T12:15:00.300Z,2.45
2023-05-18T12:17:40.008Z,2.50
2023-05-18T12:20:11.368Z,2.80
2023-05-18T12:22:40.535Z,2.38
2023-05-18T12:25:10.992Z,2.95
2023-05-18T12:27:40.853Z,2.83
2023-05-18T12:30:14.149Z,2.35
2023-05-18T12:32:46.342Z,2.50
2023-05-18T12:35:15.093Z,2.38
2023-05-18T12:37:45.821Z,2.45
2023-05-18T12:40:17.169Z,2.28
2023-05-18T12:42:54.227Z,2.47
2023-05-18T12:45:28.040Z,2.58
2023-05-18T12:47:57.406Z,2.60
2023-05-18T12:50:27.138Z,2.65
2023-05-18T12:52:57.230Z,2.25
2023-05-18T12:55:26.755Z,2.40
2023-05-18T12:58:04.416Z,2.80
2023-05-18T13:00:37.847Z,2.45
2023-05-18T13:03:13.628Z,2.80
2023-05-18T13:05:45.015Z,2.38
2023-05-18T13:08:16.458Z,2.72
2023-05-18T13:10:45.637Z,2.83
2023-05-18T13:13:16.778Z,2.45
2023-05-18T13:15:46.877Z,2.30
2023-05-18T13:18:15.555Z,2.67
2023-05-18T13:20:48.346Z,4.40
2023-05-18T13:23:18.207Z,3.75
2023-05-18T13:25:46.926Z,3.83
2023-05-18T13:28:16.698Z,3.40
2023-05-18T13:30:48.410Z,3.00
2023-05-18T13:33:18.813Z,3.13
2023-05-18T13:35:48.664Z,2.47
2023-05-18T13:38:17.081Z,2.90
2023-05-18T13:40:45.949Z,2.58
2023-05-18T13:43:14.448Z,2.60
2023-05-18T13:45:43.524Z,3.10
2023-05-18T13:48:14.428Z,2.42
2023-05-18T13:50:43.147Z,2.55
2023-05-18T13:53:11.745Z,2.85
2023-05-18T13:55:40.186Z,2.30
2023-05-18T13:58:08.878Z,2.65
2023-05-18T14:00:38.143Z,2.80
2023-05-18T14:03:06.670Z,2.50
2023-05-18T14:05:37.148Z,2.60
2023-05-18T14:08:06.177Z,2.80
2023-05-18T14:10:35.027Z,3.03
2023-05-18T14:13:03.465Z,2.88
2023-05-18T14:15:31.901Z,2.13
2023-05-18T14:18:00.393Z,2.70
2023-05-18T14:20:29.970Z,2.53
2023-05-18T14:23:00.492Z,2.25
2023-05-18T14:25:28.955Z,2.33
2023-05-18T14:27:57.445Z,2.58
2023-05-18T14:30:25.914Z,2.53
2023-05-18T14:32:54.763Z,2.90
2023-05-18T14:35:23.340Z,2.40
2023-05-18T14:37:51.748Z,2.42
2023-05-18T14:40:23.003Z,2.30
2023-05-18T14:42:53.673Z,2.25
2023-05-18T14:45:22.428Z,2.28
2023-05-18T14:47:50.988Z,2.38
2023-05-18T14:50:19.526Z,2.35
2023-05-18T14:52:48.006Z,2.17
2023-05-18T14:55:16.863Z,2.92
2023-05-18T14:57:46.836Z,2.20
2023-05-18T15:00:16.628Z,2.05
2023-05-18T15:02:45.155Z,2.42
2023-05-18T15:05:14.122Z,2.13
2023-05-18T15:07:42.621Z,2.55
2023-05-18T15:10:11.895Z,2.13
2023-05-18T15:12:40.655Z,2.25
2023-05-18T15:15:12.129Z,2.72
2023-05-18T15:17:40.817Z,2.10
2023-05-18T15:20:10.865Z,2.50
2023-05-18T15:22:41.512Z,2.17
2023-05-18T15:25:10.812Z,2.20
2023-05-18T15:27:39.415Z,2.30
2023-05-18T15:30:13.100Z,2.13
2023-05-18T15:32:42.621Z,2.33
2023-05-18T15:35:11.527Z,2.40
2023-05-18T15:37:39.992Z,2.60
2023-05-18T15:40:10.335Z,2.30
2023-05-18T15:42:38.995Z,2.53
2023-05-18T15:45:10.972Z,2.30
2023-05-18T15:47:39.946Z,2.25
2023-05-18T15:50:09.474Z,2.28
2023-05-18T15:52:37.948Z,2.35
2023-05-18T15:55:07.998Z,2.50
2023-05-18T15:57:36.533Z,2.20
2023-05-18T16:00:05.794Z,2.35
2023-05-18T16:02:36.043Z,2.30
2023-05-18T16:05:05.088Z,2.15
2023-05-18T16:07:33.784Z,2.03
2023-05-18T16:10:02.275Z,2.00
2023-05-18T16:12:31.008Z,2.10
2023-05-18T16:14:59.514Z,2.17
2023-05-18T16:17:28.070Z,2.35
2023-05-18T16:19:58.202Z,2.47
2023-05-18T16:22:26.757Z,1.85
2023-05-18T16:24:57.769Z,2.13
2023-05-18T16:27:26.322Z,2.47
2023-05-18T16:29:54.747Z,2.40
2023-05-18T16:32:24.835Z,2.28
2023-05-18T16:34:53.426Z,2.67
2023-05-18T16:37:23.890Z,2.20
2023-05-18T16:39:52.331Z,2.20
2023-05-18T16:42:22.397Z,2.25
2023-05-18T16:44:51.215Z,2.10
2023-05-18T16:47:19.635Z,2.25
2023-05-18T16:49:48.354Z,2.28
2023-05-18T16:52:18.430Z,2.45
2023-05-18T16:54:48.504Z,2.42
2023-05-18T16:57:17.377Z,2.47
2023-05-18T16:59:45.922Z,2.33
2023-05-18T17:02:14.766Z,2.20
2023-05-18T17:04:44.893Z,2.15
2023-05-18T17:07:14.150Z,2.40
2023-05-18T17:09:42.937Z,2.35
2023-05-18T17:12:13.102Z,2.65
2023-05-18T17:14:41.801Z,1.83
2023-05-18T17:17:10.445Z,2.35
2023-05-18T17:19:40.288Z,2.30
2023-05-18T17:22:10.037Z,2.55
2023-05-18T17:24:38.615Z,2.45
2023-05-18T17:27:07.534Z,2.58
2023-05-18T17:29:37.779Z,2.70
2023-05-18T17:32:07.313Z,1.95
2023-05-18T17:34:35.804Z,2.60
2023-05-18T17:37:05.030Z,2.78
2023-05-18T17:39:33.562Z,2.60
2023-05-18T17:42:03.438Z,1.95
2023-05-18T17:44:32.056Z,2.35
2023-05-18T17:47:02.255Z,2.88
2023-05-18T17:49:32.649Z,2.30
2023-05-18T17:52:01.181Z,2.33
2023-05-18T17:54:29.719Z,2.30
2023-05-18T17:56:58.365Z,2.50
2023-05-18T17:59:26.959Z,2.50
2023-05-18T18:01:55.478Z,2.78
2023-05-18T18:04:25.674Z,2.13
2023-05-18T18:06:54.780Z,2.30
2023-05-18T18:09:23.572Z,1.92
2023-05-18T18:11:51.964Z,2.72
2023-05-18T18:14:20.692Z,2.10
2023-05-18T18:16:49.851Z,2.13
2023-05-18T18:19:18.577Z,2.55
2023-05-18T18:21:48.609Z,3.08
2023-05-18T18:24:17.069Z,2.50
2023-05-18T18:26:45.721Z,2.20
2023-05-18T18:29:14.126Z,2.55
2023-05-18T18:31:42.604Z,2.65
2023-05-18T18:34:12.039Z,2.33
2023-05-18T18:36:41.068Z,2.35
2023-05-18T18:39:11.405Z,2.35
2023-05-18T18:41:39.866Z,2.63
2023-05-18T18:44:08.498Z,2.30
2023-05-18T18:46:37.152Z,2.40
2023-05-18T18:49:05.739Z,8.27
2023-05-18T18:51:34.455Z,7.40
2023-05-18T18:54:03.026Z,5.82
2023-05-18T18:56:32.898Z,3.97
2023-05-18T18:59:01.571Z,4.95
2023-05-18T19:01:30.189Z,4.63
2023-05-18T19:03:59.134Z,4.20
2023-05-18T19:06:27.772Z,4.05
2023-05-18T19:08:56.378Z,3.63
2023-05-18T19:11:24.878Z,4.13
2023-05-18T19:13:54.961Z,5.03
2023-05-18T19:16:23.564Z,3.80
2023-05-18T19:18:52.274Z,4.25
2023-05-18T19:21:21.687Z,3.53
2023-05-18T19:23:50.166Z,4.43
2023-05-18T19:26:18.718Z,4.32
2023-05-18T19:28:47.237Z,3.97
2023-05-18T19:31:17.182Z,5.05
2023-05-18T19:33:45.742Z,4.25
2023-05-18T19:36:14.400Z,4.10
2023-05-18T19:38:42.885Z,3.78
2023-05-18T19:41:12.807Z,3.28
2023-05-18T19:43:41.242Z,3.72
2023-05-18T19:46:09.901Z,3.45
2023-05-18T19:48:39.911Z,3.80
2023-05-18T19:51:08.639Z,3.45
2023-05-18T19:53:37.909Z,3.95
2023-05-18T19:56:07.070Z,3.90
2023-05-18T19:58:35.612Z,3.53
2023-05-18T20:01:04.420Z,3.67
2023-05-18T20:03:33.566Z,3.70
2023-05-18T20:06:05.198Z,3.70
2023-05-18T20:08:33.968Z,3.45
2023-05-18T20:11:03.444Z,3.40
2023-05-18T20:13:31.895Z,3.55
2023-05-18T20:16:00.584Z,3.92
2023-05-18T20:18:29.238Z,3.60
2023-05-18T20:20:57.673Z,3.35
2023-05-18T20:23:27.727Z,3.50
2023-05-18T20:25:56.272Z,3.80
2023-05-18T20:28:26.444Z,3.53
2023-05-18T20:30:54.880Z,3.17
2023-05-18T20:33:23.398Z,3.38
2023-05-18T20:35:52.083Z,3.50
2023-05-18T20:38:20.530Z,3.50
2023-05-18T20:40:51.180Z,3.42
2023-05-18T20:43:19.976Z,3.58
2023-05-18T20:45:49.658Z,3.30
2023-05-18T20:48:24.904Z,3.63
2023-05-18T20:50:53.474Z,3.83
2023-05-18T20:53:21.996Z,3.35
2023-05-18T20:55:54.504Z,3.30
2023-05-18T20:58:23.009Z,3.30
2023-05-18T21:00:52.210Z,3.00
2023-05-18T21:03:22.449Z,3.75
2023-05-18T21:05:51.873Z,3.38
2023-05-18T21:08:20.829Z,3.47
2023-05-18T21:10:49.279Z,3.40
2023-05-18T21:13:19.324Z,3.50
2023-05-18T21:15:48.023Z,3.50
2023-05-18T21:18:16.975Z,3.28
2023-05-18T21:20:45.445Z,3.47
2023-05-18T21:23:13.816Z,3.40
2023-05-18T21:25:42.245Z,3.28
2023-05-18T21:28:10.859Z,3.75
2023-05-18T21:30:41.113Z,3.42
2023-05-18T21:33:09.746Z,3.50
2023-05-18T21:35:38.233Z,3.50
2023-05-18T21:38:06.606Z,3.38
2023-05-18T21:40:36.353Z,3.35
2023-05-18T21:43:04.756Z,3.45
2023-05-18T21:45:33.626Z,3.30
2023-05-18T21:48:03.566Z,3.35
2023-05-18T21:50:35.375Z,3.42
2023-05-18T21:53:04.337Z,3.60
2023-05-18T21:55:33.116Z,2.78
2023-05-18T21:58:01.665Z,3.40
2023-05-18T22:00:30.670Z,3.35
2023-05-18T22:02:59.860Z,3.15
2023-05-18T22:05:29.757Z,3.47
2023-05-18T22:07:59.168Z,3.60
2023-05-18T22:10:27.739Z,3.17
2023-05-18T22:12:56.257Z,3.10
2023-05-18T22:15:24.865Z,3.20
2023-05-18T22:17:54.541Z,2.95
2023-05-18T22:20:24.098Z,3.45
2023-05-18T22:22:53.968Z,3.65
2023-05-18T22:25:22.601Z,3.15
2023-05-18T22:27:51.418Z,3.42
2023-05-18T22:30:20.816Z,2.90
2023-05-18T22:32:49.427Z,3.00
2023-05-18T22:35:18.063Z,2.72
2023-05-18T22:37:46.851Z,3.30
2023-05-18T22:40:16.739Z,3.20
2023-05-18T22:42:45.289Z,3.28
2023-05-18T22:45:14.045Z,3.40
2023-05-18T22:47:45.318Z,3.00
2023-05-18T22:50:14.010Z,3.20
2023-05-18T22:52:42.422Z,3.00
2023-05-18T22:55:13.452Z,2.95
2023-05-18T22:57:43.633Z,3.05
2023-05-18T23:00:14.411Z,3.20
2023-05-18T23:02:43.170Z,2.65
2023-05-18T23:05:11.874Z,3.30
2023-05-18T23:07:42.045Z,3.28
2023-05-18T23:10:12.254Z,2.78
2023-05-18T23:12:42.693Z,2.90
2023-05-18T23:15:11.953Z,2.72
2023-05-18T23:17:40.564Z,2.90
2023-05-18T23:20:11.614Z,2.70
2023-05-18T23:22:40.123Z,2.80
2023-05-18T23:25:10.439Z,2.80
2023-05-18T23:27:38.829Z,2.85
2023-05-18T23:30:10.097Z,2.85
2023-05-18T23:32:39.444Z,2.85
2023-05-18T23:35:10.776Z,2.65
2023-05-18T23:37:43.069Z,2.70
2023-05-18T23:40:13.772Z,2.85
2023-05-18T23:42:43.110Z,2.83
2023-05-18T23:45:15.491Z,2.72
2023-05-18T23:47:44.688Z,2.60
2023-05-18T23:50:15.846Z,2.80
2023-05-18T23:52:44.563Z,2.70
2023-05-18T23:55:13.593Z,3.10
2023-05-18T23:57:42.769Z,2.78
